Time;durP1;ratioP1;P1;durP2;ratioP2;P2;SDS_P1;SDS_P2;PMS_P1;PMS_P2;Temp;Humidity;BMP_temperature;BMP_pressure;BME280_temperature;BME280_humidity;BME280_pressure;Samples;Min_cycle;Max_cycle;Signal;HPM_P1;HPM_P2
2021/12/08 00:02:01;;;;;;;10.98;4.30;;;3.10;99.90;;;;;;5021037;28;20113;-80
2021/12/08 00:04:27;;;;;;;10.73;3.95;;;3.20;99.90;;;;;;5015884;28;20081;-80
2021/12/08 00:06:53;;;;;;;10.50;4.32;;;3.20;99.90;;;;;;4999876;28;20036;-80
2021/12/08 00:09:34;;;;;;;11.15;4.57;;;3.20;99.90;;;;;;5030394;28;20041;-80
2021/12/08 00:14:44;;;;;;;12.10;4.95;;;3.30;99.90;;;;;;5018265;28;20128;-80
2021/12/08 00:17:10;;;;;;;10.63;4.68;;;3.30;99.90;;;;;;5014767;28;20327;-80
2021/12/08 00:19:35;;;;;;;10.68;4.72;;;3.30;99.90;;;;;;5028368;28;20096;-80
2021/12/08 00:22:01;;;;;;;10.85;4.15;;;3.30;99.90;;;;;;5016475;28;20034;-80
2021/12/08 00:24:30;;;;;;;8.73;4.90;;;3.40;99.90;;;;;;5018763;28;20106;-80
2021/12/08 00:26:56;;;;;;;12.23;4.72;;;3.40;99.90;;;;;;5018352;28;20145;-80
2021/12/08 00:29:22;;;;;;;13.73;5.65;;;3.40;99.90;;;;;;5005230;28;20053;-80
2021/12/08 00:31:48;;;;;;;12.15;5.20;;;3.40;99.90;;;;;;5019262;28;20037;-80
2021/12/08 00:34:14;;;;;;;7.88;4.85;;;3.30;99.90;;;;;;5002988;28;20048;-80
2021/12/08 00:36:50;;;;;;;8.85;4.82;;;3.30;99.90;;;;;;5037851;28;20496;-80
2021/12/08 00:39:15;;;;;;;11.18;4.60;;;3.50;99.90;;;;;;5003750;28;20062;-80
2021/12/08 00:41:41;;;;;;;12.43;5.45;;;3.50;99.90;;;;;;5004892;28;20468;-80
2021/12/08 00:44:07;;;;;;;12.43;5.30;;;3.40;99.90;;;;;;5003614;28;20079;-80
2021/12/08 00:46:33;;;;;;;11.60;5.55;;;3.30;99.90;;;;;;5021826;28;20327;-80
2021/12/08 00:48:59;;;;;;;15.13;5.47;;;3.50;99.90;;;;;;5005813;28;20397;-80
2021/12/08 00:51:26;;;;;;;9.75;5.32;;;3.40;99.90;;;;;;5017816;28;20040;-80
2021/12/08 00:53:51;;;;;;;11.32;4.95;;;3.50;99.90;;;;;;5019665;28;20354;-80
2021/12/08 00:56:17;;;;;;;11.85;5.28;;;3.50;99.90;;;;;;5001782;28;20448;-80
2021/12/08 00:58:45;;;;;;;10.50;4.85;;;3.40;99.90;;;;;;5006536;28;20056;-80
2021/12/08 01:01:12;;;;;;;9.27;5.20;;;3.50;99.90;;;;;;5006696;28;20041;-80
2021/12/08 01:03:41;;;;;;;8.45;4.63;;;3.40;99.90;;;;;;5023849;28;20069;-80
2021/12/08 01:06:07;;;;;;;10.35;5.38;;;3.50;99.90;;;;;;5003570;28;20052;-80
2021/12/08 01:08:33;;;;;;;12.10;5.50;;;3.60;99.90;;;;;;5017254;28;20038;-80
2021/12/08 01:11:07;;;;;;;9.82;5.07;;;3.50;99.90;;;;;;5002917;28;20075;-80
2021/12/08 01:13:33;;;;;;;10.02;5.45;;;3.60;99.90;;;;;;5036821;28;20041;-80
2021/12/08 01:15:59;;;;;;;8.23;4.65;;;3.60;99.90;;;;;;5004246;28;20326;-80
2021/12/08 01:18:27;;;;;;;13.02;4.90;;;3.60;99.90;;;;;;5021461;28;20041;-80
2021/12/08 01:20:56;;;;;;;10.25;5.07;;;3.70;99.90;;;;;;5016865;28;20504;-80
2021/12/08 01:23:26;;;;;;;9.93;4.82;;;3.70;99.90;;;;;;5021175;28;20540;-80
2021/12/08 01:25:54;;;;;;;10.38;4.97;;;3.80;99.90;;;;;;5016938;28;20393;-80
2021/12/08 01:28:22;;;;;;;7.75;4.32;;;3.80;99.90;;;;;;5003576;28;20077;-80
2021/12/08 01:30:56;;;;;;;9.70;4.47;;;3.80;99.90;;;;;;5003706;28;20045;-80
2021/12/08 01:33:24;;;;;;;8.10;4.30;;;3.90;99.90;;;;;;5002262;28;20046;-80
2021/12/08 01:35:51;;;;;;;7.40;4.22;;;3.90;99.90;;;;;;5016171;28;20120;-81
2021/12/08 01:38:16;;;;;;;9.13;5.65;;;3.80;99.90;;;;;;5032753;28;20053;-80
2021/12/08 01:40:45;;;;;;;9.35;5.13;;;3.90;99.90;;;;;;5002059;28;20041;-80
2021/12/08 01:43:23;;;;;;;10.13;5.32;;;3.80;99.90;;;;;;5019898;28;20030;-80
2021/12/08 01:46:00;;;;;;;10.00;5.30;;;3.90;99.90;;;;;;5002560;28;20131;-81
2021/12/08 01:48:28;;;;;;;10.23;5.18;;;3.80;99.90;;;;;;5004259;28;20030;-80
2021/12/08 01:50:57;;;;;;;8.73;5.40;;;3.90;99.90;;;;;;5018259;28;20044;-81
2021/12/08 01:53:23;;;;;;;15.55;6.00;;;3.90;99.90;;;;;;5004455;28;20053;-80
2021/12/08 01:55:49;;;;;;;9.38;5.50;;;3.90;99.90;;;;;;5001167;28;20436;-81
2021/12/08 01:58:16;;;;;;;13.07;5.65;;;3.90;99.90;;;;;;5020921;28;20045;-80
2021/12/08 02:00:46;;;;;;;9.50;5.30;;;3.90;99.90;;;;;;5001829;28;20069;-81
2021/12/08 02:03:13;;;;;;;10.85;5.43;;;3.90;99.90;;;;;;5003524;28;20037;-80
2021/12/08 02:05:39;;;;;;;10.40;5.35;;;3.90;99.90;;;;;;5015925;28;20037;-81
2021/12/08 02:08:05;;;;;;;9.68;5.53;;;3.80;99.90;;;;;;5018856;28;20038;-81
2021/12/08 02:10:31;;;;;;;12.82;5.55;;;3.90;99.90;;;;;;5002513;28;20048;-81
2021/12/08 02:12:57;;;;;;;8.75;5.82;;;3.90;99.90;;;;;;5003995;28;20068;-80
2021/12/08 02:15:26;;;;;;;9.05;5.53;;;3.90;99.90;;;;;;5019069;28;20049;-81
2021/12/08 02:17:54;;;;;;;8.00;5.60;;;3.90;99.90;;;;;;4999553;28;20456;-81
2021/12/08 02:20:23;;;;;;;10.10;5.88;;;3.90;99.90;;;;;;5018532;28;20497;-80
2021/12/08 02:22:49;;;;;;;10.13;5.22;;;4.00;99.90;;;;;;5018213;28;20038;-81
2021/12/08 02:25:18;;;;;;;11.05;6.15;;;3.90;99.90;;;;;;5018895;28;20453;-81
2021/12/08 02:27:44;;;;;;;7.95;5.50;;;3.90;99.90;;;;;;5014984;28;20420;-80
2021/12/08 02:49:07;;;;;;;10.63;5.45;;;3.80;99.90;;;;;;5034031;28;20203;-81
2021/12/08 02:51:36;;;;;;;9.52;5.47;;;3.90;99.90;;;;;;5001413;28;20056;-80
2021/12/08 02:54:02;;;;;;;14.30;5.65;;;3.90;99.90;;;;;;4998395;28;20072;-80
2021/12/08 02:56:28;;;;;;;9.43;5.65;;;4.00;99.90;;;;;;5027653;28;20503;-81
2021/12/08 02:58:53;;;;;;;10.85;5.95;;;3.90;99.90;;;;;;4999440;28;20046;-81
2021/12/08 03:01:19;;;;;;;9.35;5.60;;;3.90;99.90;;;;;;5016636;28;20409;-81
2021/12/08 03:03:45;;;;;;;11.55;6.20;;;4.00;99.90;;;;;;5001461;28;20065;-80
2021/12/08 03:06:12;;;;;;;10.95;5.82;;;4.00;99.90;;;;;;5000167;28;20121;-81
2021/12/08 03:08:38;;;;;;;13.10;5.97;;;3.90;99.90;;;;;;5015223;28;20432;-81
2021/12/08 03:11:04;;;;;;;8.73;5.93;;;4.00;99.90;;;;;;4999013;28;20040;-81
2021/12/08 03:13:43;;;;;;;12.65;6.18;;;4.10;99.90;;;;;;5002033;28;20514;-81
2021/12/08 03:16:14;;;;;;;9.10;6.30;;;4.10;99.90;;;;;;5011334;28;20043;-81
2021/12/08 03:18:41;;;;;;;9.60;6.55;;;4.10;99.90;;;;;;5015556;28;20131;-80
2021/12/08 03:21:09;;;;;;;9.27;6.70;;;4.10;99.90;;;;;;5013525;28;20137;-80
2021/12/08 03:24:27;;;;;;;11.40;7.20;;;4.20;99.90;;;;;;5017355;28;20042;-81
2021/12/08 03:26:29;;;;;;;14.13;6.75;;;4.10;99.90;;;;;;5005525;28;20115;-80
2021/12/08 03:29:04;;;;;;;11.63;7.18;;;4.10;99.90;;;;;;5001229;28;20171;-81
2021/12/08 03:31:37;;;;;;;12.60;6.47;;;4.20;99.90;;;;;;5016678;28;20124;-81
2021/12/08 03:34:05;;;;;;;10.13;6.90;;;4.20;99.90;;;;;;5016779;28;20103;-80
2021/12/08 03:36:31;;;;;;;9.88;6.70;;;4.20;99.90;;;;;;5017140;28;20065;-81
2021/12/08 03:38:57;;;;;;;13.05;8.43;;;4.20;99.90;;;;;;5017976;28;20120;-80
2021/12/08 03:41:23;;;;;;;13.25;8.63;;;4.30;99.90;;;;;;5016947;28;20041;-80
2021/12/08 03:43:49;;;;;;;10.27;7.60;;;4.20;99.90;;;;;;5001962;28;20124;-80
2021/12/08 03:46:16;;;;;;;11.77;7.80;;;4.20;99.90;;;;;;5014829;28;20041;-81
2021/12/08 03:48:47;;;;;;;10.45;7.63;;;4.30;99.90;;;;;;5001615;28;20067;-80
2021/12/08 03:51:15;;;;;;;12.55;7.68;;;4.30;99.90;;;;;;5015854;28;20499;-81
2021/12/08 03:53:41;;;;;;;12.02;8.40;;;4.40;99.90;;;;;;4998251;28;20053;-81
2021/12/08 03:56:07;;;;;;;13.95;8.43;;;4.40;99.90;;;;;;4998896;28;20042;-81
2021/12/08 03:58:33;;;;;;;12.30;8.35;;;4.40;99.90;;;;;;4999868;28;20179;-81
2021/12/08 04:00:59;;;;;;;13.35;9.20;;;4.40;99.90;;;;;;5015685;28;20168;-81
2021/12/08 04:03:29;;;;;;;13.68;8.70;;;4.40;99.90;;;;;;5020663;28;20385;-80
2021/12/08 04:06:00;;;;;;;14.90;9.40;;;4.40;99.90;;;;;;5019093;28;20041;-80
2021/12/08 04:08:43;;;;;;;14.65;9.20;;;4.50;99.90;;;;;;5017734;28;20496;-81
2021/12/08 04:11:12;;;;;;;12.68;9.05;;;4.50;99.90;;;;;;5003303;28;20146;-80
2021/12/08 04:13:54;;;;;;;12.88;8.73;;;4.50;99.90;;;;;;5018964;28;20492;-81
2021/12/08 04:16:26;;;;;;;14.70;8.82;;;4.50;99.90;;;;;;5020412;28;20099;-81
2021/12/08 04:18:52;;;;;;;15.10;8.95;;;4.60;99.90;;;;;;5018801;28;20124;-81
2021/12/08 04:21:18;;;;;;;14.65;9.88;;;4.50;99.90;;;;;;5004849;28;20125;-81
2021/12/08 04:23:46;;;;;;;12.43;9.15;;;4.60;99.90;;;;;;5036255;28;20045;-80
2021/12/08 04:26:24;;;;;;;17.67;10.00;;;4.50;99.90;;;;;;5003084;28;20140;-80
2021/12/08 04:28:51;;;;;;;12.10;9.40;;;4.60;99.90;;;;;;5031493;28;20117;-81
2021/12/08 04:31:21;;;;;;;12.55;10.40;;;4.70;99.90;;;;;;5005371;28;20038;-80
2021/12/08 04:33:53;;;;;;;17.17;10.07;;;4.60;99.90;;;;;;5020535;28;20029;-81
2021/12/08 04:36:20;;;;;;;16.15;9.98;;;4.70;99.90;;;;;;5018471;28;20183;-81
2021/12/08 04:38:51;;;;;;;17.38;10.70;;;4.70;99.90;;;;;;5019348;28;20045;-80
2021/12/08 04:41:25;;;;;;;13.73;10.43;;;4.70;99.90;;;;;;5021533;28;20409;-81
2021/12/08 04:44:05;;;;;;;17.10;10.75;;;4.70;99.90;;;;;;5005091;28;20033;-80
2021/12/08 04:47:19;;;;;;;15.40;10.60;;;4.80;99.90;;;;;;5020362;28;20037;-81
2021/12/08 04:52:18;;;;;;;18.73;10.73;;;4.80;99.90;;;;;;5031259;28;20042;-81
2021/12/08 05:01:13;;;;;;;16.35;11.80;;;4.80;99.90;;;;;;5034730;28;20041;-81
2021/12/08 05:04:07;;;;;;;14.70;11.52;;;4.90;99.90;;;;;;5017902;28;20195;-80
2021/12/08 05:09:36;;;;;;;16.17;11.88;;;5.00;99.90;;;;;;4995730;28;20051;-81
2021/12/08 05:12:06;;;;;;;16.23;11.82;;;5.00;99.90;;;;;;5004880;28;20491;-81
2021/12/08 05:14:45;;;;;;;19.70;13.02;;;5.10;99.90;;;;;;5002725;28;20041;-80
2021/12/08 05:17:19;;;;;;;17.67;12.15;;;5.10;99.90;;;;;;5001150;28;20038;-80
2021/12/08 05:19:48;;;;;;;18.58;13.00;;;5.20;99.90;;;;;;5016233;28;20380;-81
2021/12/08 05:22:25;;;;;;;16.02;12.95;;;5.10;99.90;;;;;;5002272;28;20038;-80
2021/12/08 05:24:54;;;;;;;19.10;12.93;;;5.20;99.90;;;;;;5000643;28;20427;-81
2021/12/08 05:27:39;;;;;;;18.13;12.50;;;5.20;99.90;;;;;;5002223;28;20439;-81
2021/12/08 05:30:17;;;;;;;15.57;12.25;;;5.20;99.90;;;;;;5004052;28;20322;-80
2021/12/08 05:32:45;;;;;;;15.10;12.38;;;5.20;99.90;;;;;;5018278;28;20472;-80
2021/12/08 05:35:13;;;;;;;18.42;11.98;;;5.30;99.90;;;;;;5002400;28;20331;-81
2021/12/08 05:37:39;;;;;;;16.55;11.40;;;5.40;99.90;;;;;;5018077;28;20037;-81
2021/12/08 05:40:10;;;;;;;16.58;11.50;;;5.40;99.90;;;;;;5000964;28;20469;-81
2021/12/08 05:42:36;;;;;;;18.83;12.10;;;5.40;99.90;;;;;;5028656;28;20049;-80
2021/12/08 05:45:07;;;;;;;16.98;12.18;;;5.40;99.90;;;;;;5019868;28;20037;-80
2021/12/08 05:47:33;;;;;;;14.02;11.27;;;5.40;99.90;;;;;;5007747;28;20040;-81
2021/12/08 05:49:59;;;;;;;16.50;10.50;;;5.40;99.90;;;;;;5017317;28;20423;-80
2021/12/08 05:52:26;;;;;;;15.60;11.25;;;5.40;99.90;;;;;;5003412;28;20136;-80
2021/12/08 05:54:53;;;;;;;15.23;10.23;;;5.40;99.90;;;;;;5028563;28;20041;-81
2021/12/08 05:57:36;;;;;;;13.45;9.80;;;5.50;99.90;;;;;;5021087;28;20065;-80
2021/12/08 06:00:17;;;;;;;13.35;10.45;;;5.50;99.90;;;;;;5015027;28;20056;-81
2021/12/08 06:02:44;;;;;;;15.15;10.32;;;5.50;99.90;;;;;;5014615;28;20033;-80
2021/12/08 06:05:11;;;;;;;13.73;9.27;;;5.60;99.90;;;;;;5018079;28;20485;-81
2021/12/08 06:07:40;;;;;;;13.32;9.75;;;5.60;99.90;;;;;;5002896;28;20083;-80
2021/12/08 06:10:13;;;;;;;13.65;9.10;;;5.60;99.90;;;;;;5019801;28;20053;-80
2021/12/08 06:12:39;;;;;;;14.75;9.82;;;5.50;99.90;;;;;;5017316;28;20037;-80
2021/12/08 06:15:05;;;;;;;12.40;9.25;;;5.50;99.90;;;;;;5017650;28;20091;-80
2021/12/08 06:17:31;;;;;;;14.63;8.98;;;5.40;99.90;;;;;;5019247;28;20045;-81
2021/12/08 06:20:02;;;;;;;17.33;10.68;;;5.50;99.90;;;;;;5018310;28;20045;-80
2021/12/08 06:22:30;;;;;;;12.98;9.32;;;5.40;99.90;;;;;;4999883;28;20042;-81
2021/12/08 06:24:56;;;;;;;12.88;9.07;;;5.30;99.90;;;;;;5005752;28;20496;-80
2021/12/08 06:27:22;;;;;;;13.10;9.40;;;5.30;99.90;;;;;;5018759;28;20330;-81
2021/12/08 06:29:49;;;;;;;20.88;9.57;;;5.40;99.90;;;;;;5003642;28;20036;-81
2021/12/08 06:32:15;;;;;;;12.15;9.27;;;5.30;99.90;;;;;;5003370;28;20046;-81
2021/12/08 06:34:44;;;;;;;13.50;8.95;;;5.30;99.90;;;;;;5017379;28;20065;-81
2021/12/08 06:37:22;;;;;;;11.90;8.73;;;5.30;99.90;;;;;;5016869;28;20033;-81
2021/12/08 06:40:11;;;;;;;14.15;8.35;;;5.30;99.90;;;;;;5002718;28;20041;-80
2021/12/08 06:42:40;;;;;;;16.35;8.55;;;5.30;99.90;;;;;;5013868;28;20063;-80
2021/12/08 06:45:13;;;;;;;14.05;8.57;;;5.20;99.90;;;;;;5015152;28;20179;-80
2021/12/08 06:47:40;;;;;;;11.82;8.00;;;5.20;99.90;;;;;;5016342;28;20531;-80
2021/12/08 06:50:23;;;;;;;13.55;8.05;;;5.10;99.90;;;;;;5016340;28;20041;-81
2021/12/08 06:52:49;;;;;;;15.85;9.15;;;5.10;99.90;;;;;;5018296;28;20530;-81
2021/12/08 06:55:19;;;;;;;14.70;8.10;;;5.10;99.90;;;;;;5015340;28;20053;-81
2021/12/08 06:57:53;;;;;;;12.13;7.57;;;5.10;99.90;;;;;;4999990;28;20034;-81
2021/12/08 07:00:50;;;;;;;14.03;8.50;;;5.10;99.90;;;;;;5032287;28;20043;-81
2021/12/08 07:06:09;;;;;;;12.63;7.85;;;5.10;99.90;;;;;;5034970;28;20398;-81
2021/12/08 07:08:41;;;;;;;13.00;7.80;;;5.10;99.90;;;;;;5017464;28;20037;-80
2021/12/08 07:11:10;;;;;;;12.63;7.05;;;5.10;99.90;;;;;;5017632;28;20183;-80
2021/12/08 07:13:36;;;;;;;14.43;7.38;;;5.20;99.90;;;;;;5017531;28;20052;-81
2021/12/08 07:16:13;;;;;;;11.75;6.68;;;5.10;99.90;;;;;;5018077;28;20592;-80
2021/12/08 07:18:58;;;;;;;12.82;7.15;;;5.00;99.90;;;;;;5017162;28;20337;-81
2021/12/08 07:21:32;;;;;;;11.82;7.22;;;5.10;99.90;;;;;;5017475;28;20076;-81
2021/12/08 07:24:04;;;;;;;9.60;7.15;;;4.90;99.90;;;;;;5000718;28;20099;-80
2021/12/08 07:26:33;;;;;;;11.52;6.78;;;5.10;99.90;;;;;;5014382;28;20121;-80
2021/12/08 07:29:02;;;;;;;16.38;7.05;;;5.00;99.90;;;;;;5012395;28;20042;-80
2021/12/08 07:31:35;;;;;;;10.27;6.43;;;4.90;99.90;;;;;;4997343;28;20061;-81
2021/12/08 07:34:05;;;;;;;11.15;6.43;;;4.80;99.90;;;;;;5004701;28;20080;-81
2021/12/08 07:36:35;;;;;;;10.07;6.20;;;4.80;99.90;;;;;;4999307;28;20559;-81
2021/12/08 07:39:06;;;;;;;11.20;6.20;;;4.90;99.90;;;;;;5002591;28;20401;-81
2021/12/08 07:41:37;;;;;;;10.02;5.47;;;4.80;99.90;;;;;;5005801;28;20087;-81
2021/12/08 07:44:08;;;;;;;9.05;5.28;;;4.90;99.90;;;;;;5018732;28;20100;-81
2021/12/08 07:46:38;;;;;;;9.40;5.20;;;5.00;99.90;;;;;;5021221;28;20140;-81
2021/12/08 07:49:24;;;;;;;12.30;4.95;;;5.00;99.90;;;;;;5005819;28;20276;-80
2021/12/08 07:52:18;;;;;;;11.57;4.85;;;5.00;99.90;;;;;;5035771;28;20410;-80
2021/12/08 07:54:47;;;;;;;11.65;5.38;;;4.90;99.90;;;;;;5019241;28;20175;-81
2021/12/08 07:57:19;;;;;;;10.48;4.68;;;4.90;99.90;;;;;;5036089;28;20094;-81
2021/12/08 07:59:48;;;;;;;9.07;4.55;;;4.90;99.90;;;;;;5015830;28;20045;-80
2021/12/08 08:02:14;;;;;;;9.35;4.03;;;4.90;99.90;;;;;;5003833;28;20045;-81
2021/12/08 08:04:47;;;;;;;10.15;4.80;;;4.90;99.90;;;;;;5014892;28;20036;-81
2021/12/08 08:07:14;;;;;;;11.82;4.60;;;4.90;99.90;;;;;;5008503;28;20037;-80
2021/12/08 08:09:43;;;;;;;10.52;4.78;;;4.80;99.90;;;;;;5000897;28;20381;-80
2021/12/08 08:12:15;;;;;;;8.75;4.88;;;4.80;99.90;;;;;;5019784;28;20042;-80
2021/12/08 08:14:44;;;;;;;10.75;4.60;;;4.90;99.90;;;;;;5020996;28;20232;-81
2021/12/08 08:17:14;;;;;;;11.68;4.97;;;4.90;99.90;;;;;;5019751;28;20107;-81
2021/12/08 08:19:45;;;;;;;9.35;4.05;;;4.90;99.90;;;;;;5014874;28;20108;-80
2021/12/08 08:22:20;;;;;;;9.65;4.63;;;4.90;99.90;;;;;;5000285;28;20040;-81
2021/12/08 08:24:46;;;;;;;8.65;4.22;;;5.10;99.90;;;;;;5004326;28;20116;-80
2021/12/08 08:27:14;;;;;;;7.78;4.30;;;5.10;99.90;;;;;;5034185;28;20041;-81
2021/12/08 08:29:40;;;;;;;9.25;4.45;;;5.00;99.90;;;;;;5019406;28;20125;-81
2021/12/08 08:32:10;;;;;;;9.43;4.30;;;5.10;99.90;;;;;;5000054;28;20124;-80
2021/12/08 08:34:41;;;;;;;7.28;3.92;;;5.10;99.90;;;;;;4999534;28;20171;-81
2021/12/08 08:37:11;;;;;;;6.28;3.88;;;5.10;99.90;;;;;;5018905;28;20049;-81
2021/12/08 08:39:41;;;;;;;9.13;3.80;;;5.10;99.90;;;;;;5016202;28;20059;-81
2021/12/08 08:42:16;;;;;;;10.88;3.38;;;5.20;99.90;;;;;;5020351;28;20033;-80
2021/12/08 08:44:54;;;;;;;10.05;3.70;;;5.20;99.90;;;;;;5019368;28;20030;-80
2021/12/08 08:47:46;;;;;;;8.48;4.05;;;5.20;99.90;;;;;;5017957;28;20121;-81
2021/12/08 08:50:17;;;;;;;11.90;3.80;;;5.20;99.90;;;;;;5017332;28;20048;-81
2021/12/08 08:52:51;;;;;;;10.98;4.07;;;5.30;99.90;;;;;;4979641;28;1059048;-81
2021/12/08 08:55:24;;;;;;;5.88;3.17;;;5.30;99.90;;;;;;5019015;28;20450;-81
2021/12/08 08:57:50;;;;;;;7.30;3.38;;;5.40;99.90;;;;;;5004185;28;20033;-81
2021/12/08 09:00:25;;;;;;;11.18;3.13;;;5.40;99.90;;;;;;5005068;28;20464;-81
2021/12/08 09:02:54;;;;;;;6.80;2.97;;;5.50;99.90;;;;;;5002436;28;20112;-81
2021/12/08 09:05:37;;;;;;;4.95;2.72;;;5.60;99.90;;;;;;5003187;28;20029;-80
2021/12/08 09:08:06;;;;;;;6.70;2.90;;;5.70;99.90;;;;;;5006097;28;20103;-81
2021/12/08 09:10:55;;;;;;;7.28;3.08;;;5.70;99.90;;;;;;5018182;28;20128;-81
2021/12/08 09:13:43;;;;;;;10.00;2.60;;;5.70;99.90;;;;;;5004566;28;20116;-81
2021/12/08 09:16:19;;;;;;;13.95;2.90;;;5.70;99.90;;;;;;5015982;28;20514;-81
2021/12/08 09:18:57;;;;;;;9.00;3.08;;;5.60;99.90;;;;;;5015443;28;20049;-81
2021/12/08 09:21:35;;;;;;;7.82;2.78;;;5.70;99.90;;;;;;5005641;28;20087;-81
2021/12/08 09:24:08;;;;;;;8.93;2.70;;;5.60;99.90;;;;;;5017268;28;20044;-81
2021/12/08 09:26:38;;;;;;;8.60;2.88;;;5.70;99.90;;;;;;5002300;28;20109;-81
2021/12/08 09:29:30;;;;;;;7.25;2.95;;;5.60;99.90;;;;;;5019509;28;20033;-81
2021/12/08 09:32:08;;;;;;;7.65;2.25;;;5.70;99.90;;;;;;5003250;28;20205;-81
2021/12/08 09:34:39;;;;;;;10.15;2.97;;;5.70;99.90;;;;;;5001863;28;20086;-81
2021/12/08 09:37:10;;;;;;;9.38;2.92;;;5.70;99.90;;;;;;5002501;28;20036;-81
2021/12/08 09:39:43;;;;;;;9.85;3.03;;;5.70;99.90;;;;;;5020827;28;20103;-81
2021/12/08 09:42:16;;;;;;;11.02;2.97;;;5.70;99.90;;;;;;5001807;28;20041;-81
2021/12/08 09:45:18;;;;;;;8.48;3.05;;;5.70;99.90;;;;;;5020700;28;20569;-81
2021/12/08 09:47:44;;;;;;;11.45;3.17;;;5.70;99.90;;;;;;4994232;28;20045;-81
2021/12/08 09:50:12;;;;;;;8.60;2.90;;;5.70;99.90;;;;;;5018964;28;20045;-81
2021/12/08 09:52:40;;;;;;;6.32;3.00;;;5.60;99.90;;;;;;5002410;28;20485;-81
2021/12/08 09:55:08;;;;;;;7.65;2.60;;;5.70;99.90;;;;;;5015677;28;20136;-81
2021/12/08 09:57:34;;;;;;;7.63;2.95;;;5.80;99.90;;;;;;5036562;28;20037;-81
2021/12/08 10:00:00;;;;;;;8.20;2.83;;;5.80;99.90;;;;;;5003212;28;20339;-81
2021/12/08 10:02:32;;;;;;;6.30;2.90;;;5.70;99.90;;;;;;5001504;28;20116;-80
2021/12/08 10:05:07;;;;;;;10.02;2.97;;;5.80;99.90;;;;;;5002643;28;20041;-81
2021/12/08 10:07:33;;;;;;;7.88;3.00;;;5.90;99.90;;;;;;5019105;28;20044;-81
2021/12/08 10:09:59;;;;;;;6.32;3.17;;;5.90;99.90;;;;;;5001750;28;20034;-81
2021/12/08 10:12:25;;;;;;;7.15;2.90;;;5.90;99.90;;;;;;5019940;28;20052;-81
2021/12/08 10:14:54;;;;;;;8.77;3.10;;;6.00;99.90;;;;;;5014413;28;20030;-81
2021/12/08 10:17:20;;;;;;;9.65;3.22;;;5.90;99.90;;;;;;5016406;28;20532;-81
2021/12/08 10:20:07;;;;;;;6.00;2.53;;;6.00;99.90;;;;;;5001882;28;20361;-81
2021/12/08 10:22:33;;;;;;;9.57;3.13;;;5.90;99.90;;;;;;5001005;28;20087;-81
2021/12/08 10:25:22;;;;;;;8.45;3.03;;;6.00;99.90;;;;;;5032724;28;20342;-81
2021/12/08 10:28:11;;;;;;;8.07;2.97;;;6.00;99.90;;;;;;5004458;28;20541;-81
2021/12/08 10:30:48;;;;;;;8.15;3.08;;;6.10;99.90;;;;;;5002135;28;20534;-81
2021/12/08 10:34:01;;;;;;;8.90;3.17;;;6.10;99.90;;;;;;5014889;28;20096;-81
2021/12/08 10:36:36;;;;;;;6.70;3.05;;;6.10;99.90;;;;;;5018329;28;20041;-81
2021/12/08 10:39:10;;;;;;;9.95;2.80;;;6.10;99.90;;;;;;5002117;28;20487;-81
2021/12/08 10:42:06;;;;;;;11.60;2.90;;;6.20;99.90;;;;;;5002726;28;20070;-81
2021/12/08 10:44:49;;;;;;;11.07;3.40;;;6.30;99.90;;;;;;5020339;28;20432;-81
2021/12/08 10:47:25;;;;;;;10.35;3.00;;;6.30;99.90;;;;;;5017671;28;20172;-81
2021/12/08 10:55:14;;;;;;;9.32;3.58;;;6.40;99.90;;;;;;5019804;28;20459;-81
2021/12/08 10:57:39;;;;;;;;;;;6.30;99.90;;;;;;5019863;28;20068;-81
2021/12/08 11:00:19;;;;;;;10.68;3.00;;;6.20;99.90;;;;;;5017366;28;19947;-81
2021/12/08 11:02:49;;;;;;;6.90;3.10;;;6.30;99.90;;;;;;4999506;28;20121;-81
2021/12/08 11:05:24;;;;;;;9.45;3.30;;;6.50;99.90;;;;;;5017026;28;20076;-81
2021/12/08 11:07:59;;;;;;;;;;;6.50;99.90;;;;;;5003448;28;20033;-81
2021/12/08 11:10:25;;;;;;;9.57;3.40;;;6.50;99.90;;;;;;5016760;28;19913;-81
2021/12/08 11:12:54;;;;;;;10.05;3.17;;;6.70;99.90;;;;;;5000088;28;21053;-81
2021/12/08 11:15:22;;;;;;;7.50;2.80;;;6.70;99.90;;;;;;5001711;28;20396;-80
2021/12/08 11:18:05;;;;;;;10.40;2.70;;;6.80;99.90;;;;;;5005886;28;20044;-81
2021/12/08 11:20:32;;;;;;;8.20;2.80;;;6.80;99.90;;;;;;5002135;28;20151;-81
2021/12/08 11:23:08;;;;;;;5.18;3.03;;;6.80;99.90;;;;;;5016716;28;20083;-81
2021/12/08 11:25:52;;;;;;;7.90;2.67;;;6.80;99.90;;;;;;5015260;28;20046;-81
2021/12/08 11:28:30;;;;;;;7.95;3.05;;;6.70;99.90;;;;;;5016748;28;20044;-81
2021/12/08 11:31:12;;;;;;;12.48;3.35;;;6.80;99.90;;;;;;5001629;28;20064;-81
2021/12/08 11:33:42;;;;;;;8.38;3.25;;;6.80;99.90;;;;;;5019505;28;20033;-81
2021/12/08 11:36:11;;;;;;;5.50;3.10;;;6.80;99.90;;;;;;5014393;28;20505;-81
2021/12/08 11:38:37;;;;;;;10.32;3.10;;;6.80;99.90;;;;;;5017425;28;20191;-81
2021/12/08 11:41:34;;;;;;;7.80;3.20;;;6.80;99.90;;;;;;5012122;28;20037;-81
2021/12/08 11:44:00;;;;;;;12.88;3.47;;;6.80;99.90;;;;;;5015904;28;20151;-81
2021/12/08 11:46:26;;;;;;;9.07;3.03;;;7.00;99.90;;;;;;5002509;28;20037;-81
2021/12/08 11:49:06;;;;;;;9.98;3.20;;;6.90;99.90;;;;;;5015582;28;20129;-81
2021/12/08 11:51:44;;;;;;;12.10;3.22;;;6.90;99.90;;;;;;5014971;28;20423;-81
2021/12/08 11:54:23;;;;;;;7.07;2.80;;;6.90;99.90;;;;;;5001679;28;20264;-81
2021/12/08 11:56:49;;;;;;;8.23;3.10;;;6.80;99.90;;;;;;5027245;28;20500;-80
2021/12/08 11:59:15;;;;;;;8.60;2.90;;;6.80;99.90;;;;;;5004305;28;20041;-81
2021/12/08 12:01:41;;;;;;;8.73;3.15;;;6.70;99.90;;;;;;5016803;28;20374;-81
2021/12/08 12:04:10;;;;;;;5.45;2.72;;;6.70;99.90;;;;;;5015196;28;20052;-81
2021/12/08 12:06:38;;;;;;;9.13;3.10;;;6.60;99.90;;;;;;5015251;28;20042;-81
2021/12/08 12:09:06;;;;;;;7.45;3.00;;;6.70;99.90;;;;;;5002969;28;20455;-81
2021/12/08 12:11:32;;;;;;;9.05;3.20;;;6.60;99.90;;;;;;5016353;28;20033;-81
2021/12/08 12:13:59;;;;;;;11.80;3.10;;;6.60;99.90;;;;;;5000568;28;20045;-81
2021/12/08 12:16:27;;;;;;;10.95;3.22;;;6.50;99.90;;;;;;5001135;28;20046;-81
2021/12/08 12:18:58;;;;;;;12.77;4.03;;;6.50;99.90;;;;;;4998252;28;20047;-81
2021/12/08 12:21:45;;;;;;;7.75;2.92;;;6.50;99.90;;;;;;5000618;28;20058;-81
2021/12/08 12:24:35;;;;;;;9.18;3.10;;;6.50;99.90;;;;;;4999521;28;20037;-81
2021/12/08 12:27:25;;;;;;;12.88;3.55;;;6.40;99.90;;;;;;5003702;28;20480;-81
2021/12/08 12:30:07;;;;;;;8.65;3.10;;;6.50;99.90;;;;;;5022019;28;20037;-80
2021/12/08 12:32:43;;;;;;;9.20;3.72;;;6.50;99.90;;;;;;5022053;28;20037;-81
2021/12/08 12:35:21;;;;;;;6.93;4.10;;;6.40;99.90;;;;;;5014667;28;20088;-81
2021/12/08 12:37:49;;;;;;;6.63;3.30;;;6.50;99.90;;;;;;5021095;28;20048;-81
2021/12/08 12:40:29;;;;;;;9.43;3.38;;;6.40;99.90;;;;;;5020068;28;20073;-81
2021/12/08 12:42:58;;;;;;;9.57;3.58;;;6.50;99.90;;;;;;5019607;28;20037;-81
2021/12/08 12:45:25;;;;;;;8.10;3.13;;;6.50;99.90;;;;;;5004639;28;20079;-81
2021/12/08 12:48:14;;;;;;;8.40;3.53;;;6.40;99.90;;;;;;5005206;28;20095;-81
2021/12/08 12:51:02;;;;;;;7.50;3.05;;;6.40;99.90;;;;;;5002343;28;20033;-81
2021/12/08 12:53:46;;;;;;;10.88;3.25;;;6.40;99.90;;;;;;5017597;28;20614;-81
2021/12/08 12:56:17;;;;;;;7.90;3.17;;;6.30;99.90;;;;;;5020049;28;20052;-81
2021/12/08 12:58:56;;;;;;;8.57;3.33;;;6.40;99.90;;;;;;5004597;28;20060;-81
2021/12/08 13:01:34;;;;;;;9.18;3.67;;;6.40;99.90;;;;;;5021487;28;20044;-81
2021/12/08 13:04:15;;;;;;;5.38;3.22;;;6.50;99.90;;;;;;5015614;28;20056;-81
2021/12/08 13:06:56;;;;;;;8.10;3.08;;;6.50;99.90;;;;;;5017725;28;20025;-81
2021/12/08 13:09:51;;;;;;;8.75;3.60;;;6.40;99.90;;;;;;5000958;28;20346;-81
2021/12/08 13:12:33;;;;;;;5.65;2.90;;;6.50;99.90;;;;;;5001676;28;20060;-81
2021/12/08 13:15:19;;;;;;;7.43;2.83;;;6.40;99.90;;;;;;5003611;28;20457;-81
2021/12/08 13:18:08;;;;;;;7.43;3.30;;;6.40;99.90;;;;;;5002764;28;20049;-81
2021/12/08 13:20:46;;;;;;;15.13;4.20;;;6.40;99.90;;;;;;5000126;28;20045;-81
2021/12/08 13:23:13;;;;;;;8.35;3.10;;;6.40;99.90;;;;;;5017060;28;20052;-81
2021/12/08 13:26:04;;;;;;;5.82;2.78;;;6.40;99.90;;;;;;5002798;28;20544;-81
2021/12/08 13:28:57;;;;;;;8.70;3.67;;;6.30;99.90;;;;;;5003031;28;20037;-81
2021/12/08 13:31:30;;;;;;;9.77;3.10;;;6.30;99.90;;;;;;5019824;28;20061;-81
2021/12/08 13:34:07;;;;;;;11.43;3.15;;;6.30;99.90;;;;;;5003125;28;20044;-81
2021/12/08 13:36:43;;;;;;;7.97;2.92;;;6.30;99.90;;;;;;5002083;28;20037;-81
2021/12/08 13:39:18;;;;;;;7.72;3.10;;;6.30;99.90;;;;;;4999609;28;20465;-81
2021/12/08 13:41:58;;;;;;;6.60;3.10;;;6.30;99.90;;;;;;5017665;28;20144;-81
2021/12/08 13:44:36;;;;;;;5.43;2.95;;;6.40;99.90;;;;;;5002372;28;20060;-81
2021/12/08 13:47:27;;;;;;;7.40;2.75;;;6.40;99.90;;;;;;5000209;28;20535;-81
2021/12/08 13:49:58;;;;;;;6.40;2.70;;;6.50;99.90;;;;;;5016307;28;20041;-81
2021/12/08 13:52:25;;;;;;;7.05;2.88;;;6.50;99.90;;;;;;5002336;28;20061;-81
2021/12/08 13:55:16;;;;;;;6.85;2.85;;;6.40;99.90;;;;;;5003301;28;20045;-81
2021/12/08 13:57:50;;;;;;;9.90;2.80;;;6.30;99.90;;;;;;5018344;28;20041;-81
2021/12/08 14:00:38;;;;;;;4.70;2.33;;;6.20;99.90;;;;;;5035398;28;20276;-81